Weather at Mercy Hospital Heliport [CLOSED]

Public forecast

Using degrees Fahrenheit for public forecast. Weather courtesy of forecast.io.

Closest aviation weather report (METAR) to Mercy Hospital Heliport

Closest report is Buffalo Niagara International Airport, 6.6 nm (12.3 km) NNE.

2024/05/29 09:23 (retrieved 11 minutes ago)

KBUF 290923Z 22004KT 10SM SCT013 OVC021 14/12 A2994 RMK AO2 T01390122

Closest aviation forecast (TAF) to Mercy Hospital Heliport

Closest forecast is Buffalo Niagara International Airport, 6.6 nm (12.3 km) NNE.

2024/05/29 06:42 (retrieved 3 hours ago)

TAF KBUF 290539Z 2906/3006 VRB03KT 6SM BR BKN050 FM290900 VRB04KT 5SM BR BKN015 FM291600 01005KT P6SM BKN050 FM292200 34007KT P6SM SCT050